Time;durP1;ratioP1;P1;durP2;ratioP2;P2;SDS_P1;SDS_P2;PMS_P1;PMS_P2;Temp;Humidity;BMP_temperature;BMP_pressure;BME280_temperature;BME280_humidity;BME280_pressure;Samples;Min_cycle;Max_cycle;Signal;HPM_P1;HPM_P2
2022/01/11 00:01:26;;;;;;;3.70;2.30;;;;;;;;;;5036033;28;20162;-74
2022/01/11 00:03:55;;;;;;;2.47;1.88;;;;;;;;;;5036910;28;20049;-69
2022/01/11 00:06:35;;;;;;;2.38;2.00;;;;;;;;;;5054075;28;20446;-73
2022/01/11 00:09:08;;;;;;;2.47;2.00;;;;;;;;;;5055584;28;20451;-69
2022/01/11 00:11:35;;;;;;;3.08;2.65;;;;;;;;;;5037857;28;20143;-74
2022/01/11 00:14:04;;;;;;;2.45;2.22;;;;;;;;;;5055444;28;20040;-74
2022/01/11 00:16:32;;;;;;;4.25;2.50;;;;;;;;;;5055363;28;20052;-70
2022/01/11 00:19:05;;;;;;;3.25;2.45;;;;;;;;;;5055858;28;20069;-70
2022/01/11 00:21:38;;;;;;;3.03;2.70;;;;;;;;;;5055493;28;20049;-73
2022/01/11 00:26:52;;;;;;;3.35;2.60;;;;;;;;;;5055539;28;20064;-74
2022/01/11 00:29:20;;;;;;;3.15;2.40;;;;;;;;;;5055270;28;20049;-70
2022/01/11 00:31:49;;;;;;;2.80;2.60;;;;;;;;;;5055624;28;20061;-70
2022/01/11 00:34:20;;;;;;;6.30;2.85;;;;;;;;;;5037511;28;20076;-70
2022/01/11 00:36:48;;;;;;;3.65;2.97;;;;;;;;;;5037471;28;20143;-71
2022/01/11 00:39:16;;;;;;;4.00;3.00;;;;;;;;;;5055604;28;20397;-74
2022/01/11 00:41:44;;;;;;;3.47;2.90;;;;;;;;;;5037288;28;20095;-74
2022/01/11 00:44:13;;;;;;;3.80;2.92;;;;;;;;;;5055467;28;20077;-74
2022/01/11 00:46:44;;;;;;;3.80;3.10;;;;;;;;;;5055417;28;20033;-70
2022/01/11 00:49:12;;;;;;;3.25;2.95;;;;;;;;;;5036901;28;20045;-74
2022/01/11 00:51:39;;;;;;;5.82;2.80;;;;;;;;;;5054664;28;20052;-70
2022/01/11 00:54:07;;;;;;;3.88;2.55;;;;;;;;;;5053948;28;20047;-73
2022/01/11 00:56:36;;;;;;;2.90;2.60;;;;;;;;;;5053993;28;20500;-70
2022/01/11 00:59:04;;;;;;;3.28;2.72;;;;;;;;;;5037306;28;20373;-70
2022/01/11 01:01:37;;;;;;;5.28;3.33;;;;;;;;;;5055097;28;20512;-73
2022/01/11 01:04:06;;;;;;;3.90;3.00;;;;;;;;;;5036793;28;20073;-70
2022/01/11 01:06:35;;;;;;;3.63;3.03;;;;;;;;;;5036710;28;20037;-73
2022/01/11 01:09:03;;;;;;;3.70;2.70;;;;;;;;;;5020664;28;20049;-74
2022/01/11 01:11:34;;;;;;;3.28;2.33;;;;;;;;;;5036928;28;20384;-70
2022/01/11 01:14:02;;;;;;;4.50;2.40;;;;;;;;;;5036631;28;20052;-73
2022/01/11 01:16:29;;;;;;;2.47;1.90;;;;;;;;;;5036245;28;20072;-70
2022/01/11 01:19:08;;;;;;;3.42;2.10;;;;;;;;;;5036817;28;20049;-71
2022/01/11 01:21:39;;;;;;;2.85;2.33;;;;;;;;;;5054660;28;20080;-70
2022/01/11 01:24:08;;;;;;;2.38;1.73;;;;;;;;;;5036785;28;20082;-74
2022/01/11 01:26:44;;;;;;;2.00;1.70;;;;;;;;;;5036468;28;20059;-74
2022/01/11 01:29:13;;;;;;;3.20;2.17;;;;;;;;;;5054188;28;20107;-70
2022/01/11 01:31:40;;;;;;;2.80;2.33;;;;;;;;;;5036407;28;20048;-75
2022/01/11 01:34:09;;;;;;;2.30;2.10;;;;;;;;;;5054162;28;20045;-69
2022/01/11 01:36:38;;;;;;;3.35;2.30;;;;;;;;;;5054234;28;20048;-73
2022/01/11 01:39:07;;;;;;;3.17;2.42;;;;;;;;;;5054375;28;20503;-69
2022/01/11 01:41:35;;;;;;;2.67;2.33;;;;;;;;;;5053729;28;20147;-74
2022/01/11 01:44:03;;;;;;;3.72;2.20;;;;;;;;;;5054479;28;20407;-73
2022/01/11 01:46:32;;;;;;;6.88;2.72;;;;;;;;;;5041370;28;20041;-74
2022/01/11 01:49:03;;;;;;;4.65;2.40;;;;;;;;;;5015979;28;20045;-74
2022/01/11 01:51:31;;;;;;;4.18;2.40;;;;;;;;;;5014851;28;20046;-70
2022/01/11 01:54:00;;;;;;;2.10;1.80;;;;;;;;;;5014518;28;20047;-74
2022/01/11 01:56:28;;;;;;;3.25;2.17;;;;;;;;;;5032756;28;20050;-70
2022/01/11 01:58:57;;;;;;;2.75;2.00;;;;;;;;;;5015021;28;20157;-74
2022/01/11 02:01:26;;;;;;;2.40;1.90;;;;;;;;;;5015052;28;20105;-69
2022/01/11 02:03:54;;;;;;;2.53;1.90;;;;;;;;;;5014884;28;20038;-74
2022/01/11 02:06:23;;;;;;;2.85;1.73;;;;;;;;;;5032706;28;20595;-69
2022/01/11 02:08:52;;;;;;;2.88;1.60;;;;;;;;;;5033639;28;20049;-70
2022/01/11 02:11:22;;;;;;;2.17;1.80;;;;;;;;;;5015113;28;20075;-74
2022/01/11 02:13:53;;;;;;;3.00;2.00;;;;;;;;;;5014747;28;20061;-70
2022/01/11 02:16:23;;;;;;;4.40;1.83;;;;;;;;;;5014657;28;20053;-74
2022/01/11 02:18:55;;;;;;;2.53;1.83;;;;;;;;;;5015463;28;20123;-70
2022/01/11 02:21:24;;;;;;;6.53;1.90;;;;;;;;;;5033241;28;20456;-70
2022/01/11 02:23:56;;;;;;;1.83;1.63;;;;;;;;;;5015535;28;20045;-74
2022/01/11 02:26:24;;;;;;;2.13;1.83;;;;;;;;;;5015470;28;20041;-71
2022/01/11 02:28:52;;;;;;;2.25;1.80;;;;;;;;;;5015132;28;20068;-70
2022/01/11 02:31:21;;;;;;;2.28;2.05;;;;;;;;;;5015482;28;20100;-74
2022/01/11 02:33:57;;;;;;;3.60;2.10;;;;;;;;;;5015785;28;20044;-70
2022/01/11 02:36:31;;;;;;;2.35;1.70;;;;;;;;;;5017016;28;20378;-73
2022/01/11 02:39:27;;;;;;;2.92;2.22;;;;;;;;;;5033090;28;20046;-70
2022/01/11 02:42:03;;;;;;;4.20;2.00;;;;;;;;;;4999818;28;20038;-69
2022/01/11 02:44:40;;;;;;;2.85;1.63;;;;;;;;;;5019264;28;20041;-73
2022/01/11 02:47:13;;;;;;;3.63;2.10;;;;;;;;;;5034759;28;20103;-74
2022/01/11 02:49:44;;;;;;;3.95;1.80;;;;;;;;;;5035192;28;20159;-75
2022/01/11 02:52:23;;;;;;;2.05;1.63;;;;;;;;;;5052659;28;20187;-68
2022/01/11 02:54:57;;;;;;;3.70;2.10;;;;;;;;;;5035230;28;20052;-68
2022/01/11 02:57:25;;;;;;;2.67;1.98;;;;;;;;;;5034693;28;20412;-72
2022/01/11 02:59:59;;;;;;;4.07;2.00;;;;;;;;;;5034701;28;20072;-71
2022/01/11 03:02:29;;;;;;;3.50;2.03;;;;;;;;;;5034899;28;20048;-73
2022/01/11 03:04:57;;;;;;;1.60;1.50;;;;;;;;;;5034429;28;20096;-74
2022/01/11 03:07:26;;;;;;;2.05;1.88;;;;;;;;;;5034705;28;20061;-68
2022/01/11 03:12:36;;;;;;;3.33;1.80;;;;;;;;;;5034534;28;20099;-69
2022/01/11 03:15:04;;;;;;;2.22;1.88;;;;;;;;;;5052701;28;20102;-68
2022/01/11 03:17:32;;;;;;;2.45;1.73;;;;;;;;;;5034047;28;20037;-69
2022/01/11 03:20:01;;;;;;;2.33;1.60;;;;;;;;;;5034563;28;20080;-74
2022/01/11 03:22:28;;;;;;;2.20;1.77;;;;;;;;;;5034262;28;20053;-69
2022/01/11 03:24:56;;;;;;;3.78;1.77;;;;;;;;;;5034456;28;20052;-74
2022/01/11 03:27:24;;;;;;;1.48;1.35;;;;;;;;;;5034391;28;20080;-69
2022/01/11 03:29:52;;;;;;;2.95;1.30;;;;;;;;;;5017654;28;20481;-73
2022/01/11 03:32:21;;;;;;;2.50;1.45;;;;;;;;;;5034408;28;20057;-68
2022/01/11 03:35:09;;;;;;;2.28;1.38;;;;;;;;;;5034587;28;20049;-69
2022/01/11 03:37:37;;;;;;;2.03;1.42;;;;;;;;;;5052314;28;20135;-68
2022/01/11 03:40:06;;;;;;;2.42;1.60;;;;;;;;;;5034822;28;20075;-69
2022/01/11 03:42:36;;;;;;;1.50;1.25;;;;;;;;;;5033893;28;20431;-73
2022/01/11 03:45:06;;;;;;;1.40;1.30;;;;;;;;;;5051393;28;20076;-68
2022/01/11 03:47:35;;;;;;;1.30;1.20;;;;;;;;;;5033035;28;20396;-68
2022/01/11 03:50:08;;;;;;;5.82;2.10;;;;;;;;;;5032570;28;20111;-74
2022/01/11 03:52:39;;;;;;;2.78;1.98;;;;;;;;;;5051286;28;20076;-74
2022/01/11 03:55:13;;;;;;;2.90;2.10;;;;;;;;;;5034302;28;20044;-69
2022/01/11 03:57:49;;;;;;;3.03;1.65;;;;;;;;;;5034272;28;20048;-69
2022/01/11 04:00:19;;;;;;;1.70;1.60;;;;;;;;;;5034345;28;20131;-69
2022/01/11 04:02:52;;;;;;;1.33;1.23;;;;;;;;;;5034196;28;20103;-69
2022/01/11 04:05:22;;;;;;;1.67;1.55;;;;;;;;;;5034036;28;20072;-73
2022/01/11 04:07:49;;;;;;;1.90;1.70;;;;;;;;;;5034109;28;20041;-69
2022/01/11 04:10:18;;;;;;;2.28;1.38;;;;;;;;;;5035565;28;20413;-69
2022/01/11 04:12:48;;;;;;;3.83;1.58;;;;;;;;;;5037492;28;20048;-68
2022/01/11 04:15:16;;;;;;;1.80;1.70;;;;;;;;;;5055393;28;20049;-68
2022/01/11 04:17:45;;;;;;;3.17;2.08;;;;;;;;;;5037381;28;20065;-74
2022/01/11 04:20:14;;;;;;;2.17;1.83;;;;;;;;;;5020768;28;20047;-69
2022/01/11 04:22:42;;;;;;;2.13;1.98;;;;;;;;;;5037457;28;20049;-69
2022/01/11 04:25:10;;;;;;;2.42;1.75;;;;;;;;;;5037493;28;20044;-69
2022/01/11 04:27:38;;;;;;;6.05;1.80;;;;;;;;;;5037059;28;20052;-74
2022/01/11 04:30:06;;;;;;;1.75;1.50;;;;;;;;;;5037408;28;20069;-74
2022/01/11 04:32:33;;;;;;;3.33;1.77;;;;;;;;;;5036933;28;20048;-69
2022/01/11 04:35:01;;;;;;;2.38;1.40;;;;;;;;;;5028473;28;20048;-68
2022/01/11 04:37:29;;;;;;;1.58;1.48;;;;;;;;;;5037031;28;20111;-69
2022/01/11 04:39:57;;;;;;;1.80;1.35;;;;;;;;;;5037637;28;20044;-74
2022/01/11 04:42:27;;;;;;;2.10;1.50;;;;;;;;;;5036281;28;20049;-68
2022/01/11 04:44:54;;;;;;;1.17;1.08;;;;;;;;;;5036990;28;20051;-69
2022/01/11 04:47:22;;;;;;;4.40;1.40;;;;;;;;;;5036868;28;20047;-69
2022/01/11 04:49:50;;;;;;;2.70;1.77;;;;;;;;;;5036863;28;20056;-68
2022/01/11 04:52:17;;;;;;;5.45;2.80;;;;;;;;;;5036855;28;20053;-73
2022/01/11 04:54:45;;;;;;;7.55;3.50;;;;;;;;;;5037644;28;20055;-74
2022/01/11 04:57:32;;;;;;;7.07;3.67;;;;;;;;;;5036165;28;20132;-69
2022/01/11 05:00:00;;;;;;;5.88;3.30;;;;;;;;;;5035766;28;20044;-74
2022/01/11 05:02:29;;;;;;;5.90;3.78;;;;;;;;;;5019383;28;20060;-74
2022/01/11 05:05:01;;;;;;;7.13;4.15;;;;;;;;;;5053293;28;20456;-73
2022/01/11 05:07:28;;;;;;;9.68;4.47;;;;;;;;;;5035954;28;20049;-73
2022/01/11 05:09:56;;;;;;;7.70;4.13;;;;;;;;;;5035884;28;20037;-68
2022/01/11 05:12:24;;;;;;;6.38;3.90;;;;;;;;;;5036004;28;20119;-73
2022/01/11 05:14:52;;;;;;;8.93;4.50;;;;;;;;;;5034609;28;20124;-69
2022/01/11 05:17:20;;;;;;;6.43;3.70;;;;;;;;;;5032907;28;20497;-74
2022/01/11 05:19:48;;;;;;;2.47;1.88;;;;;;;;;;5033411;28;20041;-69
2022/01/11 05:22:16;;;;;;;3.10;2.80;;;;;;;;;;5033254;28;20044;-74
2022/01/11 05:24:44;;;;;;;5.15;3.00;;;;;;;;;;5034441;28;20038;-72
2022/01/11 05:27:11;;;;;;;3.67;2.70;;;;;;;;;;5033006;28;20096;-74
2022/01/11 05:29:39;;;;;;;5.55;2.88;;;;;;;;;;5034256;28;20434;-74
2022/01/11 05:32:07;;;;;;;4.07;2.40;;;;;;;;;;5016845;28;20051;-74
2022/01/11 05:34:34;;;;;;;5.18;2.90;;;;;;;;;;5033186;28;20092;-69
2022/01/11 05:37:03;;;;;;;4.32;2.80;;;;;;;;;;5033954;28;20037;-68
2022/01/11 05:39:31;;;;;;;4.90;2.95;;;;;;;;;;5032455;28;20068;-74
2022/01/11 05:42:02;;;;;;;5.25;2.95;;;;;;;;;;5014721;28;20481;-74
2022/01/11 05:44:29;;;;;;;3.80;2.60;;;;;;;;;;5032699;28;20111;-69
2022/01/11 05:46:57;;;;;;;4.10;2.50;;;;;;;;;;5015120;28;20037;-74
2022/01/11 05:49:27;;;;;;;3.28;2.45;;;;;;;;;;5032508;28;20050;-68
2022/01/11 05:51:56;;;;;;;2.70;2.35;;;;;;;;;;5016006;28;20033;-73
2022/01/11 05:54:24;;;;;;;2.72;2.50;;;;;;;;;;5014683;28;20400;-68
2022/01/11 05:56:52;;;;;;;2.50;2.25;;;;;;;;;;5032747;28;20088;-69
2022/01/11 05:59:20;;;;;;;2.85;2.30;;;;;;;;;;5031128;28;20080;-74
2022/01/11 06:01:48;;;;;;;2.53;2.28;;;;;;;;;;5015937;28;20412;-69
2022/01/11 06:04:16;;;;;;;3.17;2.45;;;;;;;;;;5032718;28;20056;-69
2022/01/11 06:06:46;;;;;;;8.68;2.75;;;;;;;;;;5016010;28;20132;-69
2022/01/11 06:09:16;;;;;;;3.90;2.30;;;;;;;;;;5016056;28;20047;-77
2022/01/11 06:11:46;;;;;;;2.97;2.08;;;;;;;;;;5015993;28;20128;-71
2022/01/11 06:14:19;;;;;;;2.78;2.40;;;;;;;;;;5015986;28;20076;-74
2022/01/11 06:16:49;;;;;;;4.25;1.95;;;;;;;;;;5015124;28;20038;-71
2022/01/11 06:19:17;;;;;;;4.15;2.20;;;;;;;;;;5015487;28;20128;-74
2022/01/11 06:21:59;;;;;;;3.67;2.50;;;;;;;;;;5015231;28;20057;-73
2022/01/11 06:24:27;;;;;;;2.60;2.20;;;;;;;;;;5015664;28;20048;-68
2022/01/11 06:26:56;;;;;;;3.50;2.40;;;;;;;;;;5032196;28;20048;-76
2022/01/11 06:29:25;;;;;;;8.70;3.08;;;;;;;;;;5014821;28;20137;-74
2022/01/11 06:31:53;;;;;;;2.97;2.17;;;;;;;;;;5031934;28;20420;-74
2022/01/11 06:34:20;;;;;;;6.10;3.17;;;;;;;;;;5014669;28;20046;-75
2022/01/11 06:36:48;;;;;;;5.25;3.42;;;;;;;;;;5015543;28;20050;-70
2022/01/11 06:39:16;;;;;;;7.55;3.70;;;;;;;;;;5015547;28;20397;-74
2022/01/11 06:41:44;;;;;;;4.45;3.05;;;;;;;;;;5031532;28;20046;-74
2022/01/11 06:44:17;;;;;;;3.03;2.50;;;;;;;;;;5015996;28;20042;-76
2022/01/11 06:46:46;;;;;;;4.20;2.42;;;;;;;;;;5031649;28;20045;-70
2022/01/11 06:49:17;;;;;;;2.92;2.22;;;;;;;;;;5015427;28;20041;-69
2022/01/11 06:51:45;;;;;;;3.88;2.25;;;;;;;;;;5032873;28;20133;-74
2022/01/11 06:54:12;;;;;;;5.50;2.40;;;;;;;;;;5014968;28;20049;-69
2022/01/11 06:56:42;;;;;;;6.30;2.70;;;;;;;;;;5031667;28;20052;-75
2022/01/11 06:59:11;;;;;;;5.90;2.58;;;;;;;;;;5031093;28;20051;-70
2022/01/11 07:01:41;;;;;;;6.70;2.22;;;;;;;;;;5031979;28;20122;-76
2022/01/11 07:04:24;;;;;;;4.80;3.00;;;;;;;;;;5031947;28;20065;-70
2022/01/11 07:06:56;;;;;;;5.70;3.08;;;;;;;;;;5034639;28;20045;-70
2022/01/11 07:09:23;;;;;;;3.28;2.85;;;;;;;;;;5051470;28;20037;-70
2022/01/11 07:11:51;;;;;;;7.30;2.97;;;;;;;;;;5032884;28;20049;-75
2022/01/11 07:14:19;;;;;;;7.00;3.10;;;;;;;;;;5032699;28;20049;-76
2022/01/11 07:16:48;;;;;;;6.55;2.70;;;;;;;;;;5051521;28;20060;-70
2022/01/11 07:19:17;;;;;;;6.85;2.85;;;;;;;;;;5034412;28;20049;-69
2022/01/11 07:21:47;;;;;;;5.88;2.97;;;;;;;;;;5034363;28;20049;-76
2022/01/11 07:24:16;;;;;;;8.05;3.10;;;;;;;;;;5034414;28;20045;-70
2022/01/11 07:26:47;;;;;;;7.70;3.40;;;;;;;;;;5034709;28;20073;-76
2022/01/11 07:29:19;;;;;;;11.52;4.68;;;;;;;;;;5033913;28;20205;-76
2022/01/11 07:31:47;;;;;;;6.90;3.17;;;;;;;;;;5034628;28;20041;-70
2022/01/11 07:34:17;;;;;;;9.32;3.80;;;;;;;;;;5034340;28;20049;-70
2022/01/11 07:36:45;;;;;;;7.82;5.40;;;;;;;;;;5052499;28;20045;-70
2022/01/11 07:39:15;;;;;;;7.88;5.07;;;;;;;;;;5033895;28;20037;-71
2022/01/11 07:41:43;;;;;;;6.05;3.83;;;;;;;;;;5034053;28;20053;-76
2022/01/11 07:44:19;;;;;;;10.23;4.80;;;;;;;;;;5051929;28;20064;-76
2022/01/11 07:46:48;;;;;;;8.90;4.65;;;;;;;;;;5037480;28;20587;-70
2022/01/11 07:49:26;;;;;;;15.85;5.13;;;;;;;;;;5037115;28;20036;-70
2022/01/11 07:51:54;;;;;;;13.05;4.35;;;;;;;;;;5035121;28;20427;-70
2022/01/11 07:54:22;;;;;;;11.05;4.28;;;;;;;;;;5055512;28;20045;-70
2022/01/11 07:56:50;;;;;;;4.40;3.20;;;;;;;;;;5037395;28;20044;-70
2022/01/11 07:59:20;;;;;;;6.95;3.22;;;;;;;;;;5037763;28;20048;-77
2022/01/11 08:02:03;;;;;;;6.45;2.95;;;;;;;;;;5035201;28;20049;-71
2022/01/11 08:04:34;;;;;;;16.85;4.85;;;;;;;;;;5037159;28;20041;-72
2022/01/11 08:07:04;;;;;;;6.72;3.97;;;;;;;;;;5053427;28;20503;-70
2022/01/11 08:09:47;;;;;;;5.25;3.60;;;;;;;;;;5037247;28;20052;-71
2022/01/11 08:12:15;;;;;;;7.55;3.08;;;;;;;;;;5035468;28;20041;-75
2022/01/11 08:14:43;;;;;;;10.10;5.55;;;;;;;;;;5036057;28;20033;-76
2022/01/11 08:17:11;;;;;;;5.75;4.03;;;;;;;;;;5054017;28;20087;-70
2022/01/11 08:19:41;;;;;;;9.13;3.78;;;;;;;;;;5055294;28;20029;-70
2022/01/11 08:22:15;;;;;;;14.95;3.45;;;;;;;;;;5036766;28;20085;-71
2022/01/11 08:24:51;;;;;;;6.68;3.53;;;;;;;;;;5037411;28;20044;-77
2022/01/11 08:27:22;;;;;;;10.40;3.22;;;;;;;;;;5037104;28;20079;-77
2022/01/11 08:29:54;;;;;;;3.37;2.73;;;;;;;;;;5036541;28;20051;-70
2022/01/11 08:32:22;;;;;;;3.28;2.40;;;;;;;;;;5037446;28;20048;-77
2022/01/11 08:34:50;;;;;;;4.90;2.28;;;;;;;;;;5034414;28;20065;-70
2022/01/11 08:37:19;;;;;;;2.45;2.15;;;;;;;;;;5037004;28;20037;-77
2022/01/11 08:39:50;;;;;;;3.70;2.30;;;;;;;;;;5034726;28;20051;-76
2022/01/11 08:42:18;;;;;;;6.22;2.20;;;;;;;;;;5020781;28;20044;-75
2022/01/11 08:44:49;;;;;;;4.07;2.40;;;;;;;;;;5037060;28;20044;-71
2022/01/11 08:47:24;;;;;;;3.97;2.30;;;;;;;;;;5034633;28;20156;-71
2022/01/11 08:49:53;;;;;;;2.80;2.28;;;;;;;;;;5022565;28;20524;-76
2022/01/11 08:52:21;;;;;;;2.00;1.77;;;;;;;;;;5043496;28;20495;-72
2022/01/11 08:54:51;;;;;;;3.40;2.00;;;;;;;;;;5027908;28;20053;-74
2022/01/11 08:57:20;;;;;;;3.92;2.03;;;;;;;;;;5016242;28;20468;-75
2022/01/11 08:59:50;;;;;;;6.20;2.10;;;;;;;;;;5022954;28;20041;-74
2022/01/11 09:02:21;;;;;;;2.70;1.90;;;;;;;;;;5033279;28;20043;-75
2022/01/11 09:04:53;;;;;;;3.08;1.90;;;;;;;;;;5030442;28;20397;-76
2022/01/11 09:07:26;;;;;;;2.33;1.98;;;;;;;;;;5020279;28;20040;-70
2022/01/11 09:09:57;;;;;;;6.50;2.22;;;;;;;;;;5017437;28;20045;-75
2022/01/11 09:12:25;;;;;;;4.72;2.35;;;;;;;;;;5015347;28;20033;-71
2022/01/11 09:14:53;;;;;;;2.88;1.98;;;;;;;;;;5033462;28;20086;-75
2022/01/11 09:17:22;;;;;;;3.45;2.40;;;;;;;;;;5034588;28;20126;-72
2022/01/11 09:19:50;;;;;;;7.32;3.28;;;;;;;;;;5035862;28;20049;-71
2022/01/11 09:22:20;;;;;;;3.35;2.33;;;;;;;;;;5034517;28;20107;-78
2022/01/11 09:24:49;;;;;;;8.82;4.20;;;;;;;;;;5035652;28;20071;-77
2022/01/11 09:27:20;;;;;;;4.95;2.80;;;;;;;;;;5037994;28;20041;-72
2022/01/11 09:29:49;;;;;;;7.53;5.35;;;;;;;;;;5033362;28;20060;-70
2022/01/11 09:32:18;;;;;;;5.10;3.40;;;;;;;;;;5031349;28;20052;-75
2022/01/11 09:34:48;;;;;;;4.25;1.80;;;;;;;;;;5027867;28;20145;-75
2022/01/11 09:37:23;;;;;;;3.40;1.85;;;;;;;;;;5031784;28;20051;-74
2022/01/11 09:39:51;;;;;;;3.25;1.35;;;;;;;;;;5032093;28;20490;-75
2022/01/11 09:42:25;;;;;;;1.60;1.50;;;;;;;;;;5032702;28;20435;-71
2022/01/11 09:44:55;;;;;;;4.20;1.60;;;;;;;;;;5034579;28;21253;-77
2022/01/11 09:47:23;;;;;;;2.45;1.45;;;;;;;;;;5051456;28;20041;-76
2022/01/11 09:49:55;;;;;;;3.65;1.48;;;;;;;;;;5033352;28;20531;-76
2022/01/11 09:52:26;;;;;;;3.72;1.92;;;;;;;;;;5030999;28;20107;-76
2022/01/11 09:54:55;;;;;;;2.50;1.55;;;;;;;;;;5031673;28;20045;-77
2022/01/11 09:57:26;;;;;;;5.25;1.55;;;;;;;;;;5034354;28;20045;-71
2022/01/11 10:00:17;;;;;;;1.77;1.65;;;;;;;;;;5051820;28;20171;-78
2022/01/11 10:02:57;;;;;;;3.88;1.42;;;;;;;;;;5017588;28;20053;-72
2022/01/11 10:05:39;;;;;;;2.50;1.40;;;;;;;;;;5028126;28;20455;-72
2022/01/11 10:08:20;;;;;;;3.13;1.35;;;;;;;;;;5049762;28;20095;-78
2022/01/11 10:10:48;;;;;;;1.58;1.48;;;;;;;;;;5033404;28;20424;-72
2022/01/11 10:13:40;;;;;;;3.47;1.55;;;;;;;;;;5033484;28;20045;-72
2022/01/11 10:16:23;;;;;;;2.22;1.58;;;;;;;;;;5034030;28;20052;-77
2022/01/11 10:18:56;;;;;;;3.58;2.03;;;;;;;;;;5034040;28;20449;-71
2022/01/11 10:21:31;;;;;;;2.50;1.58;;;;;;;;;;5064764;22;20136;-71
2022/01/11 10:24:00;;;;;;;2.47;1.90;;;;;;;;;;5054182;28;20044;-69
2022/01/11 10:26:45;;;;;;;3.03;2.40;;;;;;;;;;5053152;28;20086;-78
2022/01/11 10:29:25;;;;;;;2.80;1.88;;;;;;;;;;5033393;28;20068;-70
2022/01/11 10:31:59;;;;;;;6.75;2.55;;;;;;;;;;5050153;28;20052;-71
2022/01/11 10:34:32;;;;;;;3.35;2.20;;;;;;;;;;5027299;28;20052;-77
2022/01/11 10:37:05;;;;;;;4.10;1.95;;;;;;;;;;5032791;28;20071;-71
2022/01/11 10:39:40;;;;;;;4.70;1.80;;;;;;;;;;5033492;28;20052;-70
2022/01/11 10:42:32;;;;;;;3.65;2.22;;;;;;;;;;5033463;28;20044;-71
2022/01/11 10:45:08;;;;;;;3.03;1.83;;;;;;;;;;5033265;28;20049;-77
2022/01/11 10:47:38;;;;;;;5.85;1.83;;;;;;;;;;5028594;28;20045;-78
2022/01/11 10:50:14;;;;;;;3.58;1.95;;;;;;;;;;5049705;28;20055;-77
2022/01/11 10:52:48;;;;;;;3.30;2.00;;;;;;;;;;5033045;28;20450;-77
2022/01/11 10:55:25;;;;;;;5.18;1.95;;;;;;;;;;5033300;28;20407;-72
2022/01/11 10:58:00;;;;;;;4.15;1.92;;;;;;;;;;5028977;28;20033;-71
2022/01/11 11:00:30;;;;;;;5.97;1.70;;;;;;;;;;5050862;28;20424;-77
2022/01/11 11:03:01;;;;;;;4.22;1.85;;;;;;;;;;5030584;28;20103;-72
2022/01/11 11:05:30;;;;;;;2.38;1.48;;;;;;;;;;5047617;28;20037;-71
2022/01/11 11:08:08;;;;;;;3.80;1.75;;;;;;;;;;5018649;28;20061;-71
2022/01/11 11:10:41;;;;;;;2.47;1.58;;;;;;;;;;5040473;28;20095;-77
2022/01/11 11:13:10;;;;;;;3.67;2.00;;;;;;;;;;5050021;28;20524;-70
2022/01/11 11:15:42;;;;;;;3.83;1.90;;;;;;;;;;5033057;28;20049;-71
2022/01/11 11:18:30;;;;;;;3.37;2.13;;;;;;;;;;5032737;28;20291;-71
2022/01/11 11:21:11;;;;;;;3.55;2.10;;;;;;;;;;5052155;28;20052;-70
2022/01/11 11:23:40;;;;;;;3.25;1.80;;;;;;;;;;5053992;28;20037;-77
2022/01/11 11:26:07;;;;;;;2.70;1.90;;;;;;;;;;5055880;28;20041;-71
2022/01/11 11:28:35;;;;;;;3.45;2.15;;;;;;;;;;5054513;28;20033;-70
2022/01/11 11:31:07;;;;;;;3.35;2.03;;;;;;;;;;5055182;28;20048;-76
2022/01/11 11:33:39;;;;;;;4.55;1.80;;;;;;;;;;5055656;28;20041;-71
2022/01/11 11:36:08;;;;;;;3.30;1.92;;;;;;;;;;5055750;28;20040;-74
2022/01/11 11:38:40;;;;;;;3.65;1.75;;;;;;;;;;5055347;28;20064;-72
2022/01/11 11:41:08;;;;;;;2.45;1.58;;;;;;;;;;5054503;28;20563;-76
2022/01/11 11:43:35;;;;;;;3.22;1.80;;;;;;;;;;5055591;28;20041;-70
2022/01/11 11:46:03;;;;;;;4.07;1.95;;;;;;;;;;5054617;28;20045;-76
2022/01/11 11:48:31;;;;;;;5.55;1.50;;;;;;;;;;5038049;28;20068;-75
2022/01/11 11:51:01;;;;;;;3.45;1.65;;;;;;;;;;5054599;28;20044;-71
2022/01/11 11:53:31;;;;;;;3.08;1.70;;;;;;;;;;5037607;28;20055;-75
2022/01/11 11:56:17;;;;;;;5.90;1.90;;;;;;;;;;5051969;28;20037;-70
2022/01/11 11:58:46;;;;;;;2.50;1.40;;;;;;;;;;5055011;28;20053;-76
2022/01/11 12:01:33;;;;;;;3.85;1.42;;;;;;;;;;5055223;28;20041;-75
2022/01/11 12:04:01;;;;;;;5.65;1.60;;;;;;;;;;5052982;28;20041;-70
2022/01/11 12:06:31;;;;;;;3.67;1.70;;;;;;;;;;5055139;28;20117;-76
2022/01/11 12:09:00;;;;;;;1.73;1.63;;;;;;;;;;5037082;28;20389;-71
2022/01/11 12:11:34;;;;;;;1.75;1.60;;;;;;;;;;5037009;28;20060;-70
2022/01/11 12:14:01;;;;;;;1.90;1.65;;;;;;;;;;5055176;28;20041;-76
2022/01/11 12:16:40;;;;;;;5.60;1.63;;;;;;;;;;5055463;28;20067;-75
2022/01/11 12:19:14;;;;;;;1.65;1.27;;;;;;;;;;5052507;28;20519;-76
2022/01/11 12:21:43;;;;;;;2.47;1.40;;;;;;;;;;5054587;28;20415;-75
2022/01/11 12:24:11;;;;;;;3.47;1.52;;;;;;;;;;5054661;28;20400;-75
2022/01/11 12:26:39;;;;;;;1.63;1.35;;;;;;;;;;5054739;28;20040;-71
2022/01/11 12:29:09;;;;;;;2.75;1.48;;;;;;;;;;5034296;28;20048;-71
2022/01/11 12:31:39;;;;;;;2.78;1.88;;;;;;;;;;5054335;28;20037;-69
2022/01/11 12:34:09;;;;;;;18.98;3.17;;;;;;;;;;5051680;28;20049;-75
2022/01/11 12:37:01;;;;;;;9.45;2.05;;;;;;;;;;5036721;28;20052;-70
2022/01/11 12:39:31;;;;;;;3.92;2.03;;;;;;;;;;5052895;28;20240;-74
2022/01/11 12:42:01;;;;;;;2.83;1.63;;;;;;;;;;5049444;28;20047;-77
2022/01/11 12:47:26;;;;;;;5.93;2.22;;;;;;;;;;5016755;28;20064;-75
2022/01/11 12:50:13;;;;;;;3.20;2.40;;;;;;;;;;5043952;28;20045;-76
2022/01/11 12:52:41;;;;;;;4.38;2.40;;;;;;;;;;5046333;28;20373;-70
2022/01/11 12:55:09;;;;;;;5.90;2.05;;;;;;;;;;5044582;28;20048;-74
2022/01/11 12:57:37;;;;;;;7.55;2.53;;;;;;;;;;5044169;28;20047;-76
2022/01/11 13:00:10;;;;;;;4.68;1.80;;;;;;;;;;5044127;28;20065;-74
2022/01/11 13:02:39;;;;;;;5.22;2.28;;;;;;;;;;5026167;28;20056;-71
2022/01/11 13:05:08;;;;;;;3.78;2.08;;;;;;;;;;5026144;28;20478;-69
2022/01/11 13:07:38;;;;;;;5.38;2.00;;;;;;;;;;5046231;28;20602;-70
2022/01/11 13:10:05;;;;;;;6.18;2.00;;;;;;;;;;5041994;28;20128;-69
2022/01/11 13:12:51;;;;;;;6.78;2.22;;;;;;;;;;5026155;28;20075;-75
2022/01/11 13:15:40;;;;;;;6.20;2.00;;;;;;;;;;5052495;28;20045;-70
2022/01/11 13:18:11;;;;;;;3.08;2.03;;;;;;;;;;5031934;28;20044;-75
2022/01/11 13:21:07;;;;;;;6.13;1.92;;;;;;;;;;5046203;28;20061;-69
2022/01/11 13:23:46;;;;;;;3.58;2.10;;;;;;;;;;5050279;28;20503;-75
2022/01/11 13:26:16;;;;;;;5.80;2.05;;;;;;;;;;5044841;28;20037;-69
2022/01/11 13:28:48;;;;;;;3.13;2.28;;;;;;;;;;5044173;28;20045;-70
2022/01/11 13:31:20;;;;;;;5.03;1.80;;;;;;;;;;5032392;28;20091;-70
2022/01/11 13:33:51;;;;;;;3.42;1.92;;;;;;;;;;5040900;28;20033;-75
2022/01/11 13:36:19;;;;;;;6.00;2.05;;;;;;;;;;5032254;28;20506;-70
2022/01/11 13:38:48;;;;;;;8.30;2.90;;;;;;;;;;5042314;28;20041;-77
2022/01/11 13:41:27;;;;;;;6.45;2.42;;;;;;;;;;5028821;28;20041;-75
2022/01/11 13:44:11;;;;;;;4.90;1.70;;;;;;;;;;5045854;28;20037;-70
2022/01/11 13:46:44;;;;;;;7.15;2.30;;;;;;;;;;5052215;28;20079;-75
2022/01/11 13:49:31;;;;;;;6.55;2.20;;;;;;;;;;5048115;28;20068;-72
2022/01/11 13:52:04;;;;;;;3.80;1.80;;;;;;;;;;5053256;28;20047;-70
2022/01/11 13:54:35;;;;;;;2.50;1.80;;;;;;;;;;5049363;28;20232;-71
2022/01/11 13:57:04;;;;;;;3.30;1.92;;;;;;;;;;5052972;28;20037;-75
2022/01/11 13:59:34;;;;;;;5.07;1.70;;;;;;;;;;5050347;28;20048;-75
2022/01/11 14:02:09;;;;;;;5.90;1.85;;;;;;;;;;5053202;28;20049;-75
2022/01/11 14:04:40;;;;;;;2.65;1.63;;;;;;;;;;5048182;28;20079;-74
2022/01/11 14:07:29;;;;;;;1.83;1.60;;;;;;;;;;5045290;28;20049;-71
2022/01/11 14:10:03;;;;;;;3.40;1.88;;;;;;;;;;5043249;28;20037;-75
2022/01/11 14:12:39;;;;;;;2.70;1.88;;;;;;;;;;5053250;28;20037;-75
2022/01/11 14:15:28;;;;;;;5.95;1.73;;;;;;;;;;5051967;28;20037;-75
2022/01/11 14:17:56;;;;;;;2.22;1.90;;;;;;;;;;5035148;28;20048;-76
2022/01/11 14:20:27;;;;;;;4.30;2.42;;;;;;;;;;5035364;28;20051;-70
2022/01/11 14:22:58;;;;;;;2.95;1.65;;;;;;;;;;5052257;28;20041;-70
2022/01/11 14:25:31;;;;;;;4.03;1.40;;;;;;;;;;5052876;28;20110;-74
2022/01/11 14:28:00;;;;;;;5.88;2.30;;;;;;;;;;5051791;28;20048;-70
2022/01/11 14:30:34;;;;;;;3.38;1.90;;;;;;;;;;5052605;28;20402;-71
2022/01/11 14:33:02;;;;;;;5.55;2.08;;;;;;;;;;5031516;28;20045;-74
2022/01/11 14:35:35;;;;;;;2.28;1.80;;;;;;;;;;5051712;28;20492;-70
2022/01/11 14:38:03;;;;;;;;;;;;;;;;;;5052509;28;20460;-72
2022/01/11 14:40:41;;;;;;;1.92;1.70;;;;;;;;;;5052277;28;19958;-74
2022/01/11 14:43:21;;;;;;;2.30;1.77;;;;;;;;;;5033585;28;20429;-76
2022/01/11 14:45:49;;;;;;;2.47;1.50;;;;;;;;;;5049152;28;20059;-76
2022/01/11 14:48:34;;;;;;;4.25;1.65;;;;;;;;;;5051400;28;20095;-76
2022/01/11 14:51:10;;;;;;;7.00;1.95;;;;;;;;;;5050463;28;20439;-75
2022/01/11 14:53:39;;;;;;;3.50;1.90;;;;;;;;;;5052178;28;20504;-71
2022/01/11 14:56:27;;;;;;;3.50;1.73;;;;;;;;;;5035005;28;20045;-70
2022/01/11 14:58:59;;;;;;;2.60;1.40;;;;;;;;;;5052712;28;20053;-70
2022/01/11 15:01:36;;;;;;;3.60;1.80;;;;;;;;;;5052818;28;20047;-71
2022/01/11 15:04:05;;;;;;;4.13;1.98;;;;;;;;;;5052623;28;20055;-71
2022/01/11 15:06:37;;;;;;;3.22;1.90;;;;;;;;;;5034982;28;20045;-70
2022/01/11 15:09:07;;;;;;;2.05;1.75;;;;;;;;;;5053045;28;20127;-72
2022/01/11 15:11:41;;;;;;;4.68;2.05;;;;;;;;;;5052685;28;20049;-71
2022/01/11 15:14:10;;;;;;;4.05;1.73;;;;;;;;;;5053055;28;20075;-76
2022/01/11 15:16:40;;;;;;;5.63;2.08;;;;;;;;;;5035377;28;20495;-75